Caxito, Angola
Current Conditions -  °F | °C
As of 4:00 AM on Wednesday 22 Oct 2014 (Local Time) from FNLU Reporting Station
Broken Clouds Broken Clouds  
Wind Chill: 75°   Ceiling: 2500
Heat Index: 75°   Visibility: 6mi
Dew Point: 70°   Wind: 7mph
Humidity: 83%   Direction: 190°S
Pressure: 29.91"   Gusts: NA
Location:  8.58°S, 13.66°E
Report Text: FNLU 220300Z 19006KT 9999 BKN025 24/21 Q1013 NOSIG
Loading
Personal Weather Stations






























Interactive Weather Map
Tropical Storm Tracking
New forecast layout! Learn more

10-Day Weather Forecast

Advertisements
Track Severe Weather on mobile